createdAt,value
2018-10-02T00:01:28.704Z,6.40
2018-10-02T00:03:57.167Z,6.40
2018-10-02T00:06:25.644Z,6.50
2018-10-02T00:08:54.042Z,6.50
2018-10-02T00:12:27.518Z,6.40
2018-10-02T00:14:55.913Z,6.40
2018-10-02T00:17:24.425Z,6.50
2018-10-02T00:19:52.839Z,6.40
2018-10-02T00:22:21.266Z,6.20
2018-10-02T00:24:50.007Z,6.10
2018-10-02T00:27:18.443Z,6.20
2018-10-02T00:29:46.854Z,6.10
2018-10-02T00:32:15.432Z,5.90
2018-10-02T00:34:43.819Z,5.90
2018-10-02T00:37:12.271Z,5.90
2018-10-02T00:39:40.686Z,6.00
2018-10-02T00:42:09.843Z,6.00
2018-10-02T00:44:38.251Z,6.00
2018-10-02T00:47:07.011Z,6.10
2018-10-02T00:49:35.426Z,6.00
2018-10-02T00:52:04.084Z,5.90
2018-10-02T00:54:32.495Z,5.80
2018-10-02T00:57:00.937Z,6.00
2018-10-02T00:59:29.547Z,5.90
2018-10-02T01:01:58.234Z,6.10
2018-10-02T01:04:27.018Z,5.90
2018-10-02T01:06:55.451Z,5.80
2018-10-02T01:09:24.214Z,5.80
2018-10-02T01:11:52.650Z,5.90
2018-10-02T01:14:21.427Z,5.90
2018-10-02T01:16:49.846Z,6.10
2018-10-02T01:19:18.345Z,6.00
2018-10-02T01:21:46.757Z,5.90
2018-10-02T01:24:15.507Z,5.90
2018-10-02T01:26:43.927Z,5.80
2018-10-02T01:29:12.397Z,5.80
2018-10-02T01:31:40.847Z,5.80
2018-10-02T01:34:09.321Z,5.60
2018-10-02T01:36:37.737Z,5.50
2018-10-02T01:39:07.239Z,5.40
2018-10-02T01:41:35.654Z,5.60
2018-10-02T01:44:04.143Z,5.40
2018-10-02T01:46:32.546Z,5.30
2018-10-02T01:49:00.971Z,5.40
2018-10-02T01:51:29.451Z,5.50
2018-10-02T01:53:58.159Z,5.40
2018-10-02T01:56:26.639Z,5.30
2018-10-02T01:58:55.290Z,5.60
2018-10-02T02:01:24.177Z,5.30
2018-10-02T02:03:52.611Z,5.30
2018-10-02T02:06:21.121Z,5.30
2018-10-02T02:08:49.561Z,5.20
2018-10-02T02:11:18.319Z,5.10
2018-10-02T02:13:47.010Z,5.30
2018-10-02T02:16:15.450Z,5.10
2018-10-02T02:18:43.895Z,5.00
2018-10-02T02:21:12.289Z,5.20
2018-10-02T02:23:40.738Z,4.90
2018-10-02T02:26:09.398Z,5.00
2018-10-02T02:28:37.850Z,5.10
2018-10-02T02:31:06.299Z,5.20
2018-10-02T02:33:34.782Z,5.10
2018-10-02T02:36:03.251Z,5.10
2018-10-02T02:38:31.749Z,5.20
2018-10-02T02:41:00.227Z,5.20
2018-10-02T02:43:28.674Z,5.00
2018-10-02T02:45:57.130Z,5.20
2018-10-02T02:48:31.093Z,5.30
2018-10-02T02:51:05.010Z,5.40
2018-10-02T02:53:33.454Z,5.10
2018-10-02T02:56:01.915Z,4.90
2018-10-02T02:58:30.333Z,4.80
2018-10-02T03:00:59.198Z,4.80
2018-10-02T03:03:27.842Z,4.80
2018-10-02T03:05:56.322Z,4.80
2018-10-02T03:08:24.772Z,4.80
2018-10-02T03:10:54.026Z,4.80
2018-10-02T03:13:22.434Z,4.80
2018-10-02T03:15:51.183Z,4.90
2018-10-02T03:18:19.678Z,4.90
2018-10-02T03:20:48.103Z,5.00
2018-10-02T03:23:16.947Z,5.20
2018-10-02T03:25:45.350Z,5.00
2018-10-02T03:28:13.759Z,4.80
2018-10-02T03:30:42.213Z,5.10
2018-10-02T03:33:10.654Z,4.70
2018-10-02T03:35:39.194Z,4.70
2018-10-02T03:38:07.935Z,4.60
2018-10-02T03:40:36.414Z,4.60
2018-10-02T03:43:04.830Z,4.60
2018-10-02T03:45:33.270Z,4.50
2018-10-02T03:48:02.017Z,4.50
2018-10-02T03:50:30.502Z,4.60
2018-10-02T03:52:59.188Z,4.60
2018-10-02T03:55:27.639Z,4.60
2018-10-02T03:57:56.113Z,4.90
2018-10-02T04:00:24.522Z,4.90
2018-10-02T04:02:53.330Z,4.80
2018-10-02T04:05:21.829Z,4.90
2018-10-02T04:07:50.258Z,4.60
2018-10-02T04:10:18.729Z,4.40
2018-10-02T04:12:47.178Z,4.50
2018-10-02T04:15:15.630Z,4.60
2018-10-02T04:17:44.036Z,4.70
2018-10-02T04:20:12.810Z,4.60
2018-10-02T04:22:41.288Z,4.60
2018-10-02T04:25:09.695Z,4.60
2018-10-02T04:27:38.597Z,4.80
2018-10-02T04:30:07.405Z,4.70
2018-10-02T04:32:35.859Z,4.70
2018-10-02T04:35:04.611Z,4.70
2018-10-02T04:37:33.054Z,4.70
2018-10-02T04:40:01.526Z,4.70
2018-10-02T04:42:30.248Z,4.70
2018-10-02T04:44:59.314Z,4.90
2018-10-02T04:47:27.718Z,5.10
2018-10-02T04:49:56.430Z,5.10
2018-10-02T04:52:24.898Z,5.00
2018-10-02T04:54:53.436Z,5.00
2018-10-02T04:57:21.818Z,4.90
2018-10-02T04:59:50.583Z,4.90
2018-10-02T05:02:19.096Z,4.90
2018-10-02T05:04:47.787Z,5.00
2018-10-02T05:07:16.241Z,5.10
2018-10-02T05:09:44.899Z,5.10
2018-10-02T05:12:13.363Z,5.00
2018-10-02T05:14:41.807Z,5.10
2018-10-02T05:17:10.298Z,5.20
2018-10-02T05:19:38.721Z,5.30
2018-10-02T05:22:07.195Z,5.20
2018-10-02T05:24:35.608Z,5.20
2018-10-02T05:27:04.130Z,5.30
2018-10-02T05:29:32.590Z,5.30
2018-10-02T05:32:01.010Z,5.40
2018-10-02T05:34:29.487Z,5.40
2018-10-02T05:36:57.884Z,5.40
2018-10-02T05:39:26.653Z,5.50
2018-10-02T05:41:55.832Z,5.50
2018-10-02T05:44:24.324Z,5.70
2018-10-02T05:46:52.767Z,5.80
2018-10-02T05:49:21.195Z,5.90
2018-10-02T05:51:49.644Z,5.80
2018-10-02T05:54:18.095Z,5.90
2018-10-02T05:56:46.549Z,5.80
2018-10-02T05:59:15.302Z,5.70
2018-10-02T06:01:44.081Z,5.90
2018-10-02T06:04:12.526Z,5.90
2018-10-02T06:06:41.527Z,6.10
2018-10-02T06:09:11.618Z,6.10
2018-10-02T06:11:40.066Z,6.30
2018-10-02T06:14:09.093Z,6.30
2018-10-02T06:16:37.594Z,6.40
2018-10-02T06:19:06.075Z,6.40
2018-10-02T06:21:34.550Z,6.40
2018-10-02T06:24:03.042Z,6.40
2018-10-02T06:26:31.559Z,6.50
2018-10-02T06:29:00.247Z,6.50
2018-10-02T06:31:28.704Z,6.50
2018-10-02T06:33:57.226Z,6.50
2018-10-02T06:36:25.746Z,6.50
2018-10-02T06:38:54.214Z,6.50
2018-10-02T06:41:22.663Z,6.60
2018-10-02T06:43:51.118Z,6.70
2018-10-02T06:46:19.582Z,6.80
2018-10-02T06:48:48.029Z,6.80
2018-10-02T06:51:16.696Z,6.80
2018-10-02T06:53:45.083Z,7.00
2018-10-02T06:56:16.612Z,7.00
2018-10-02T06:58:45.164Z,7.00
2018-10-02T07:01:13.569Z,7.10
2018-10-02T07:03:42.023Z,7.20
2018-10-02T07:06:10.703Z,7.20
2018-10-02T07:08:39.225Z,7.20
2018-10-02T07:11:07.826Z,7.30
2018-10-02T07:13:36.292Z,7.40
2018-10-02T07:16:04.748Z,7.40
2018-10-02T07:18:33.464Z,7.50
2018-10-02T07:21:02.539Z,7.50
2018-10-02T07:23:31.311Z,7.50
2018-10-02T07:25:59.750Z,7.50
2018-10-02T07:28:29.397Z,7.70
2018-10-02T07:30:58.169Z,7.70
2018-10-02T07:33:26.602Z,7.70
2018-10-02T07:35:55.088Z,7.70
2018-10-02T07:38:23.581Z,7.80
2018-10-02T07:40:52.042Z,7.80
2018-10-02T07:43:20.503Z,7.80
2018-10-02T07:45:48.980Z,7.90
2018-10-02T07:48:17.454Z,8.00
2018-10-02T07:50:45.873Z,8.00
2018-10-02T07:53:14.399Z,8.00
2018-10-02T07:55:42.927Z,8.10
2018-10-02T07:58:11.392Z,8.10
2018-10-02T08:00:39.938Z,8.20
2018-10-02T08:03:08.455Z,8.20
2018-10-02T08:05:36.937Z,8.20
2018-10-02T08:08:05.625Z,8.20
2018-10-02T08:10:34.071Z,8.30
2018-10-02T08:13:02.501Z,8.30
2018-10-02T08:15:31.348Z,8.30
2018-10-02T08:17:59.928Z,8.40
2018-10-02T08:20:28.357Z,8.40
2018-10-02T08:22:56.973Z,8.40
2018-10-02T08:25:25.520Z,8.40
2018-10-02T08:27:53.929Z,8.40
2018-10-02T08:30:22.491Z,8.40
2018-10-02T08:32:50.923Z,8.40
2018-10-02T08:35:19.744Z,8.40
2018-10-02T08:37:48.097Z,8.30
2018-10-02T08:40:16.647Z,8.30
2018-10-02T08:42:45.061Z,8.30
2018-10-02T08:45:13.866Z,8.30
2018-10-02T08:47:42.277Z,8.30
2018-10-02T08:50:10.743Z,8.30
2018-10-02T08:52:39.530Z,8.30
2018-10-02T08:55:08.026Z,8.30
2018-10-02T08:57:36.451Z,8.30
2018-10-02T09:00:05.589Z,8.30
2018-10-02T09:02:34.048Z,8.40
2018-10-02T09:05:02.474Z,8.40
2018-10-02T09:07:30.922Z,8.40
2018-10-02T09:09:59.902Z,8.40
2018-10-02T09:12:28.381Z,8.60
2018-10-02T09:14:56.857Z,8.60
2018-10-02T09:17:29.513Z,8.70
2018-10-02T09:19:58.286Z,8.60
2018-10-02T09:22:26.747Z,8.50
2018-10-02T09:24:55.231Z,8.50
2018-10-02T09:27:23.723Z,8.40
2018-10-02T09:29:57.866Z,8.50
2018-10-02T09:32:31.874Z,8.50
2018-10-02T09:35:05.815Z,8.60
2018-10-02T09:37:39.507Z,8.50
2018-10-02T09:40:13.356Z,8.60
2018-10-02T09:42:47.103Z,8.60
2018-10-02T09:45:15.556Z,8.60
2018-10-02T09:47:44.286Z,8.60
2018-10-02T09:50:12.730Z,8.60
2018-10-02T09:52:41.151Z,8.70
2018-10-02T09:55:09.605Z,8.70
2018-10-02T09:57:38.051Z,8.70
2018-10-02T10:00:10.959Z,8.70
2018-10-02T10:02:39.425Z,8.70
2018-10-02T10:05:08.534Z,8.60
2018-10-02T10:07:36.955Z,8.70
2018-10-02T10:10:05.472Z,8.80
2018-10-02T10:12:33.913Z,8.80
2018-10-02T10:15:02.387Z,8.80
2018-10-02T10:17:30.883Z,8.80
2018-10-02T10:19:59.354Z,8.90
2018-10-02T10:22:28.617Z,8.90
2018-10-02T10:24:57.055Z,8.90
2018-10-02T10:27:25.807Z,8.90
2018-10-02T10:29:54.292Z,8.90
2018-10-02T10:32:22.733Z,8.90
2018-10-02T10:34:51.213Z,9.00
2018-10-02T10:37:19.945Z,9.10
2018-10-02T10:39:48.668Z,9.00
2018-10-02T10:42:17.092Z,9.10
2018-10-02T10:44:45.771Z,9.10
2018-10-02T10:47:14.275Z,9.10
2018-10-02T10:49:42.710Z,9.10
2018-10-02T10:52:11.130Z,9.10
2018-10-02T10:54:40.007Z,9.10
2018-10-02T10:57:08.519Z,9.00
2018-10-02T10:59:37.288Z,9.00
2018-10-02T11:02:05.792Z,9.00
2018-10-02T11:04:34.264Z,9.10
2018-10-02T11:07:02.673Z,9.10
2018-10-02T11:09:31.156Z,9.10
2018-10-02T11:11:59.562Z,9.10
2018-10-02T11:14:28.013Z,9.10
2018-10-02T11:16:56.459Z,9.10
2018-10-02T11:19:24.950Z,9.20
2018-10-02T11:21:53.359Z,9.20
2018-10-02T11:24:21.815Z,9.20
2018-10-02T11:26:50.234Z,9.10
2018-10-02T11:29:18.700Z,9.10
2018-10-02T11:31:47.171Z,9.10
2018-10-02T11:34:15.638Z,9.10
2018-10-02T11:36:44.083Z,9.20
2018-10-02T11:39:12.507Z,9.20
2018-10-02T11:41:41.524Z,9.20
2018-10-02T11:44:10.368Z,9.10
2018-10-02T11:46:38.713Z,9.20
2018-10-02T11:49:07.222Z,9.20
2018-10-02T11:51:35.702Z,9.20
2018-10-02T11:54:04.232Z,9.10
2018-10-02T11:56:33.255Z,9.10
2018-10-02T11:59:01.750Z,9.10
2018-10-02T12:01:30.308Z,9.00
2018-10-02T12:03:58.711Z,8.90
2018-10-02T12:06:27.187Z,8.80
2018-10-02T12:08:55.666Z,8.70
2018-10-02T12:11:24.140Z,8.70
2018-10-02T12:13:52.623Z,8.70
2018-10-02T12:16:21.055Z,8.60
2018-10-02T12:18:49.491Z,8.50
2018-10-02T12:21:17.978Z,8.50
2018-10-02T12:23:46.579Z,8.40
2018-10-02T12:26:14.866Z,8.40
2018-10-02T12:28:43.288Z,8.50
2018-10-02T12:31:12.108Z,8.50
2018-10-02T12:33:40.552Z,8.50
2018-10-02T12:36:08.998Z,8.40
2018-10-02T12:38:37.458Z,8.40
2018-10-02T12:41:06.117Z,8.40
2018-10-02T12:43:34.611Z,8.50
2018-10-02T12:46:03.043Z,8.50
2018-10-02T12:48:31.530Z,8.50
2018-10-02T12:50:59.984Z,8.40
2018-10-02T12:53:28.444Z,8.30
2018-10-02T12:55:57.038Z,8.30
2018-10-02T12:58:25.455Z,8.30
2018-10-02T13:00:53.944Z,8.40
2018-10-02T13:03:22.406Z,8.40
2018-10-02T13:05:50.927Z,8.40
2018-10-02T13:08:19.342Z,8.40
2018-10-02T13:10:47.856Z,8.30
2018-10-02T13:13:16.486Z,8.40
2018-10-02T13:15:44.995Z,8.30
2018-10-02T13:18:13.422Z,8.30
2018-10-02T13:20:42.936Z,8.30
2018-10-02T13:23:11.895Z,8.30
2018-10-02T13:25:40.375Z,8.40
2018-10-02T13:28:08.828Z,8.40
2018-10-02T13:30:37.298Z,8.40
2018-10-02T13:33:08.070Z,8.40
2018-10-02T13:35:36.985Z,8.40
2018-10-02T13:38:05.489Z,8.40
2018-10-02T13:40:33.897Z,8.40
2018-10-02T13:43:02.411Z,8.50
2018-10-02T13:45:31.107Z,8.50
2018-10-02T13:48:01.208Z,8.40
2018-10-02T13:50:30.997Z,8.50
2018-10-02T13:52:59.481Z,8.50
2018-10-02T13:55:27.886Z,8.50
2018-10-02T13:57:57.027Z,8.50
2018-10-02T14:00:25.816Z,8.50
2018-10-02T14:02:54.286Z,8.50
2018-10-02T14:05:22.994Z,8.50
2018-10-02T14:07:51.559Z,8.60
2018-10-02T14:10:19.970Z,8.60
2018-10-02T14:12:48.435Z,8.60
2018-10-02T14:15:16.915Z,8.60
2018-10-02T14:17:45.369Z,8.70
2018-10-02T14:20:13.878Z,8.70
2018-10-02T14:22:42.799Z,8.70
2018-10-02T14:25:11.767Z,8.60
2018-10-02T14:27:40.226Z,8.70
2018-10-02T14:30:09.003Z,8.70
2018-10-02T14:32:37.450Z,8.60
2018-10-02T14:35:05.913Z,8.60
2018-10-02T14:37:35.140Z,8.60
2018-10-02T14:40:03.659Z,8.60
2018-10-02T14:42:32.428Z,8.60
2018-10-02T14:45:01.105Z,8.60
2018-10-02T14:47:29.577Z,8.60
2018-10-02T14:49:58.267Z,8.70
2018-10-02T14:52:26.727Z,8.70
2018-10-02T14:54:55.836Z,8.70
2018-10-02T14:57:24.290Z,8.70
2018-10-02T14:59:53.047Z,8.70
2018-10-02T15:02:21.614Z,8.70
2018-10-02T15:04:50.540Z,8.70
2018-10-02T15:07:19.685Z,8.70
2018-10-02T15:09:48.373Z,8.70
2018-10-02T15:12:18.862Z,8.70
2018-10-02T15:14:47.351Z,8.70
2018-10-02T15:17:15.783Z,8.60
2018-10-02T15:19:44.242Z,8.60
2018-10-02T15:22:12.834Z,8.60
2018-10-02T15:24:41.248Z,8.60
2018-10-02T15:27:10.018Z,8.60
2018-10-02T15:29:39.040Z,8.60
2018-10-02T15:32:07.527Z,8.60
2018-10-02T15:34:35.929Z,8.60
2018-10-02T15:37:04.434Z,8.60
2018-10-02T15:39:32.951Z,8.60
2018-10-02T15:42:01.714Z,8.60
2018-10-02T15:44:30.165Z,8.60
2018-10-02T15:46:58.894Z,8.60
2018-10-02T15:49:27.306Z,8.70
2018-10-02T15:51:55.791Z,8.70
2018-10-02T15:54:24.194Z,8.80
2018-10-02T15:56:52.910Z,8.80
2018-10-02T15:59:21.379Z,8.80
2018-10-02T16:01:49.790Z,8.90
2018-10-02T16:04:18.363Z,8.90
2018-10-02T16:06:46.822Z,8.90
2018-10-02T16:09:15.254Z,9.00
2018-10-02T16:11:43.869Z,9.00
2018-10-02T16:14:12.143Z,9.00
2018-10-02T16:16:40.603Z,9.00
2018-10-02T16:19:09.022Z,9.00
2018-10-02T16:21:37.451Z,9.00
2018-10-02T16:24:05.872Z,9.00
2018-10-02T16:26:34.311Z,9.10
2018-10-02T16:29:02.727Z,9.10
2018-10-02T16:31:31.893Z,9.10
2018-10-02T16:34:00.330Z,9.10
2018-10-02T16:36:28.765Z,9.10
2018-10-02T16:38:57.202Z,9.10
2018-10-02T16:41:25.686Z,9.10
2018-10-02T16:43:54.412Z,9.10
2018-10-02T16:46:23.118Z,9.10
2018-10-02T16:48:51.831Z,9.20
2018-10-02T16:51:20.515Z,9.20
2018-10-02T16:53:49.174Z,9.30
2018-10-02T16:56:17.639Z,9.40
2018-10-02T16:58:46.055Z,9.40
2018-10-02T17:01:14.503Z,9.40
2018-10-02T17:03:42.918Z,9.40
2018-10-02T17:06:11.350Z,9.40
2018-10-02T17:08:39.755Z,9.40
2018-10-02T17:11:08.476Z,9.40
2018-10-02T17:13:37.024Z,9.50
2018-10-02T17:16:05.454Z,9.40
2018-10-02T17:18:33.958Z,9.50
2018-10-02T17:21:02.495Z,9.50
2018-10-02T17:23:31.026Z,9.50
2018-10-02T17:25:59.730Z,9.60
2018-10-02T17:28:28.158Z,9.60
2018-10-02T17:30:56.601Z,9.50
2018-10-02T17:33:25.701Z,9.60
2018-10-02T17:35:54.248Z,9.60
2018-10-02T17:38:22.924Z,9.60
2018-10-02T17:40:51.387Z,9.70
2018-10-02T17:43:19.793Z,9.70
2018-10-02T17:45:48.572Z,9.70
2018-10-02T17:48:17.507Z,9.80
2018-10-02T17:50:45.932Z,9.80
2018-10-02T17:53:14.879Z,9.80
2018-10-02T17:55:44.166Z,9.80
2018-10-02T17:58:12.605Z,9.90
2018-10-02T18:00:41.071Z,9.90
2018-10-02T18:03:09.495Z,9.90
2018-10-02T18:05:37.935Z,9.90
2018-10-02T18:08:06.499Z,9.90
2018-10-02T18:10:35.115Z,9.90
2018-10-02T18:13:04.741Z,10.00
2018-10-02T18:15:33.885Z,10.00
2018-10-02T18:18:02.491Z,9.90
2018-10-02T18:20:31.286Z,10.00
2018-10-02T18:23:00.007Z,10.00
2018-10-02T18:25:28.771Z,9.90
2018-10-02T18:27:57.583Z,9.90
2018-10-02T18:30:26.296Z,9.90
2018-10-02T18:32:54.752Z,9.90
2018-10-02T18:35:23.458Z,9.90
2018-10-02T18:37:51.926Z,9.90
2018-10-02T18:40:20.392Z,9.90
2018-10-02T18:42:49.026Z,9.90
2018-10-02T18:45:18.246Z,9.90
2018-10-02T18:47:46.672Z,9.90
2018-10-02T18:50:15.106Z,9.90
2018-10-02T18:52:43.546Z,9.90
2018-10-02T18:55:12.265Z,9.90
2018-10-02T18:57:41.013Z,9.90
2018-10-02T19:00:09.427Z,10.00
2018-10-02T19:02:38.611Z,10.00
2018-10-02T19:05:07.270Z,9.90
2018-10-02T19:07:36.432Z,9.90
2018-10-02T19:10:05.254Z,9.90
2018-10-02T19:12:34.642Z,9.90
2018-10-02T19:15:03.102Z,10.00
2018-10-02T19:17:31.566Z,10.00
2018-10-02T19:20:06.768Z,9.90
2018-10-02T19:22:35.298Z,10.00
2018-10-02T19:25:09.099Z,9.90
2018-10-02T19:27:37.559Z,9.90
2018-10-02T19:30:11.294Z,9.90
2018-10-02T19:32:39.722Z,9.80
2018-10-02T19:35:08.243Z,9.90
2018-10-02T19:37:42.033Z,9.90
2018-10-02T19:40:10.527Z,9.90
2018-10-02T19:42:39.075Z,10.00
2018-10-02T19:45:12.998Z,10.00
2018-10-02T19:47:41.436Z,9.90
2018-10-02T19:50:10.160Z,9.90
2018-10-02T19:52:38.607Z,9.90
2018-10-02T19:55:07.080Z,9.90
2018-10-02T19:57:35.504Z,9.80
2018-10-02T20:00:03.979Z,9.90
2018-10-02T20:02:32.412Z,9.90
2018-10-02T20:05:00.816Z,9.90
2018-10-02T20:07:29.356Z,9.90
2018-10-02T20:09:57.716Z,9.90
2018-10-02T20:12:26.177Z,9.90
2018-10-02T20:14:54.603Z,9.90
2018-10-02T20:17:23.407Z,9.90
2018-10-02T20:19:51.827Z,10.00
2018-10-02T20:22:20.602Z,10.00
2018-10-02T20:24:49.058Z,10.00
2018-10-02T20:27:17.528Z,10.00
2018-10-02T20:29:45.914Z,10.10
2018-10-02T20:32:15.632Z,10.00
2018-10-02T20:34:44.180Z,10.00
2018-10-02T20:37:12.666Z,10.10
2018-10-02T20:39:41.135Z,10.10
2018-10-02T20:42:09.583Z,10.10
2018-10-02T20:44:38.371Z,10.10
2018-10-02T20:47:06.799Z,10.10
2018-10-02T20:49:35.373Z,10.10
2018-10-02T20:52:03.839Z,10.10
2018-10-02T20:54:32.579Z,10.10
2018-10-02T20:57:01.310Z,10.10
2018-10-02T20:59:29.757Z,10.10
2018-10-02T21:01:58.224Z,10.10
2018-10-02T21:04:26.656Z,10.10
2018-10-02T21:06:55.061Z,10.10
2018-10-02T21:09:23.745Z,10.10
2018-10-02T21:11:54.506Z,10.10
2018-10-02T21:14:22.983Z,10.10
2018-10-02T21:16:51.423Z,10.10
2018-10-02T21:19:19.899Z,10.10
2018-10-02T21:21:48.407Z,10.20
2018-10-02T21:24:16.786Z,10.20
2018-10-02T21:26:45.579Z,10.20
2018-10-02T21:29:14.065Z,10.20
2018-10-02T21:31:42.583Z,10.20
2018-10-02T21:34:10.955Z,10.30
2018-10-02T21:36:39.393Z,10.30
2018-10-02T21:39:09.080Z,10.30
2018-10-02T21:41:37.498Z,10.30
2018-10-02T21:44:06.231Z,10.40
2018-10-02T21:46:34.663Z,10.40
2018-10-02T21:49:03.096Z,10.50
2018-10-02T21:51:31.543Z,10.50
2018-10-02T21:53:59.996Z,10.40
2018-10-02T21:56:29.041Z,10.50
2018-10-02T21:58:57.482Z,10.40
2018-10-02T22:01:30.374Z,10.40
2018-10-02T22:03:58.840Z,10.40
2018-10-02T22:06:27.562Z,10.50
2018-10-02T22:08:56.026Z,10.40
2018-10-02T22:11:24.450Z,10.50
2018-10-02T22:13:52.891Z,10.50
2018-10-02T22:16:22.681Z,10.50
2018-10-02T22:18:51.435Z,10.50
2018-10-02T22:21:20.104Z,10.50
2018-10-02T22:23:49.056Z,10.60
2018-10-02T22:26:17.478Z,10.60
2018-10-02T22:28:46.122Z,10.60
2018-10-02T22:31:14.866Z,10.60
2018-10-02T22:33:43.388Z,10.60
2018-10-02T22:36:11.788Z,10.60
2018-10-02T22:38:41.258Z,10.60
2018-10-02T22:41:10.043Z,10.60
2018-10-02T22:43:38.627Z,10.60
2018-10-02T22:46:07.606Z,10.60
2018-10-02T22:48:36.123Z,10.70
2018-10-02T22:51:04.545Z,10.60
2018-10-02T22:53:32.984Z,10.60
2018-10-02T22:56:01.462Z,10.60
2018-10-02T22:58:29.903Z,10.60
2018-10-02T23:00:58.348Z,10.60
2018-10-02T23:03:26.782Z,10.60
2018-10-02T23:05:55.834Z,10.60
2018-10-02T23:08:24.690Z,10.60
2018-10-02T23:10:53.165Z,10.60
2018-10-02T23:13:21.934Z,10.60
2018-10-02T23:15:50.819Z,10.70
2018-10-02T23:18:19.259Z,10.70
2018-10-02T23:20:47.726Z,10.70
2018-10-02T23:23:16.152Z,10.70
2018-10-02T23:25:44.619Z,10.80
2018-10-02T23:28:13.030Z,10.80
2018-10-02T23:30:41.467Z,10.90
2018-10-02T23:33:09.905Z,10.90
2018-10-02T23:35:38.330Z,10.80
2018-10-02T23:38:07.101Z,10.90
2018-10-02T23:40:35.606Z,10.90
2018-10-02T23:43:04.040Z,10.90
2018-10-02T23:45:32.490Z,10.90
2018-10-02T23:48:00.915Z,11.00
2018-10-02T23:50:29.342Z,10.90
2018-10-02T23:52:58.051Z,10.90
2018-10-02T23:55:26.494Z,10.90
2018-10-02T23:57:54.922Z,11.00
